Time;durP1;ratioP1;P1;durP2;ratioP2;P2;SDS_P1;SDS_P2;PMS_P1;PMS_P2;Temp;Humidity;BMP_temperature;BMP_pressure;BME280_temperature;BME280_humidity;BME280_pressure;Samples;Min_cycle;Max_cycle;Signal;HPM_P1;HPM_P2
2021/11/15 00:01:53;;;;;;;89.27;33.77;;;4.20;99.90;;;;;;5086605;28;20230;-58
2021/11/15 00:04:22;;;;;;;85.40;32.87;;;4.10;99.90;;;;;;5094898;28;20194;-59
2021/11/15 00:06:50;;;;;;;85.97;33.63;;;4.10;99.90;;;;;;5102317;28;20194;-59
2021/11/15 00:09:21;;;;;;;84.90;33.63;;;4.00;99.90;;;;;;5101211;27;20252;-59
2021/11/15 00:11:49;;;;;;;83.90;31.97;;;4.00;99.90;;;;;;5102454;28;20221;-59
2021/11/15 00:14:17;;;;;;;82.17;31.23;;;4.00;99.90;;;;;;5106346;27;20232;-59
2021/11/15 00:16:46;;;;;;;76.97;31.07;;;3.90;99.90;;;;;;5094272;28;20207;-58
2021/11/15 00:19:19;;;;;;;78.87;31.37;;;3.90;99.90;;;;;;5099005;28;20195;-59
2021/11/15 00:21:47;;;;;;;81.03;29.70;;;3.80;99.90;;;;;;5103162;28;20206;-59
2021/11/15 00:24:20;;;;;;;77.67;29.37;;;3.80;99.90;;;;;;5102188;28;20211;-59
2021/11/15 00:26:49;;;;;;;79.57;29.93;;;3.70;99.90;;;;;;5101319;28;20568;-59
2021/11/15 00:29:18;;;;;;;79.50;30.30;;;3.70;99.90;;;;;;5100466;27;20232;-59
2021/11/15 00:31:47;;;;;;;88.27;33.73;;;3.70;99.90;;;;;;5105440;28;20210;-59
2021/11/15 00:34:15;;;;;;;85.87;31.13;;;3.70;99.90;;;;;;5092051;28;20278;-59
2021/11/15 00:36:44;;;;;;;85.00;30.83;;;3.70;99.90;;;;;;5098036;27;20196;-59
2021/11/15 00:39:13;;;;;;;73.47;29.40;;;3.60;99.90;;;;;;5100783;27;20222;-59
2021/11/15 00:41:44;;;;;;;78.00;29.87;;;3.60;99.90;;;;;;5102086;27;20196;-59
2021/11/15 00:44:14;;;;;;;82.10;29.97;;;3.60;99.90;;;;;;5102838;27;20678;-59
2021/11/15 00:46:48;;;;;;;80.57;30.60;;;3.60;99.90;;;;;;5106416;27;20268;-59
2021/11/15 00:49:17;;;;;;;88.43;30.97;;;3.50;99.90;;;;;;5100424;28;20190;-59
2021/11/15 00:51:45;;;;;;;76.23;30.00;;;3.50;99.90;;;;;;5103115;28;20215;-60
2021/11/15 00:54:14;;;;;;;78.20;29.57;;;3.50;99.90;;;;;;5102995;28;20192;-59
2021/11/15 00:56:46;;;;;;;76.20;28.53;;;3.50;99.90;;;;;;5094193;27;20609;-59
2021/11/15 00:59:15;;;;;;;78.57;29.27;;;3.50;99.90;;;;;;5102979;28;20198;-59
2021/11/15 01:01:43;;;;;;;74.97;29.10;;;3.40;99.90;;;;;;5097128;28;20278;-59
2021/11/15 01:04:12;;;;;;;80.23;30.23;;;3.40;99.90;;;;;;5099268;28;20194;-59
2021/11/15 01:06:41;;;;;;;75.13;28.63;;;3.40;99.90;;;;;;5103912;28;20247;-59
2021/11/15 01:09:09;;;;;;;76.63;29.67;;;3.30;99.90;;;;;;5111915;27;20216;-59
2021/11/15 01:11:38;;;;;;;80.63;30.13;;;3.30;99.90;;;;;;5097154;28;20301;-59
2021/11/15 01:14:08;;;;;;;90.27;32.50;;;3.30;99.90;;;;;;5102965;28;20187;-59
2021/11/15 01:16:36;;;;;;;79.47;30.00;;;3.30;99.90;;;;;;5101053;28;20210;-58
2021/11/15 01:19:05;;;;;;;93.87;32.83;;;3.30;99.90;;;;;;5099969;28;20190;-59
2021/11/15 01:21:34;;;;;;;94.50;32.80;;;3.30;99.90;;;;;;5095394;28;20191;-58
2021/11/15 01:24:03;;;;;;;97.10;34.87;;;3.40;99.90;;;;;;5106437;28;20218;-59
2021/11/15 01:26:32;;;;;;;103.43;35.70;;;3.40;99.90;;;;;;5100820;28;20238;-59
2021/11/15 01:29:00;;;;;;;94.13;33.53;;;3.50;99.90;;;;;;5101593;28;20210;-59
2021/11/15 01:31:30;;;;;;;99.80;34.80;;;3.50;99.90;;;;;;5093923;28;20223;-59
2021/11/15 01:34:01;;;;;;;115.13;37.07;;;3.50;99.90;;;;;;5103077;28;20200;-59
2021/11/15 01:36:30;;;;;;;118.57;38.10;;;3.40;99.90;;;;;;5097423;28;20214;-59
2021/11/15 01:38:58;;;;;;;111.20;36.57;;;3.50;99.90;;;;;;5104604;28;20778;-59
2021/11/15 01:41:27;;;;;;;116.93;39.40;;;3.50;99.90;;;;;;5099206;28;20736;-59
2021/11/15 01:44:00;;;;;;;117.03;38.30;;;3.50;99.90;;;;;;5101024;28;20701;-59
2021/11/15 01:46:30;;;;;;;112.47;35.50;;;3.40;99.90;;;;;;5099139;28;20274;-59
2021/11/15 01:48:58;;;;;;;106.40;34.60;;;3.40;99.90;;;;;;5105195;27;20194;-59
2021/11/15 01:51:27;;;;;;;117.27;35.87;;;3.40;99.90;;;;;;5101021;28;20345;-59
2021/11/15 01:53:56;;;;;;;110.03;35.87;;;3.30;99.90;;;;;;5091599;27;20278;-59
2021/11/15 01:56:25;;;;;;;108.60;35.83;;;3.30;99.90;;;;;;5096752;28;20202;-59
2021/11/15 01:58:54;;;;;;;116.40;36.33;;;3.40;99.90;;;;;;5100316;28;20277;-59
2021/11/15 02:01:24;;;;;;;112.37;35.73;;;3.30;99.90;;;;;;5099837;28;20199;-59
2021/11/15 02:03:54;;;;;;;117.47;36.67;;;3.30;99.90;;;;;;5095880;28;20260;-58
2021/11/15 02:06:23;;;;;;;137.93;38.90;;;3.40;99.90;;;;;;5103122;27;20190;-57
2021/11/15 02:08:51;;;;;;;117.37;36.60;;;3.40;99.90;;;;;;5098351;28;20193;-56
2021/11/15 02:11:20;;;;;;;119.33;37.33;;;3.50;99.90;;;;;;5095359;28;20213;-59
2021/11/15 02:13:49;;;;;;;108.67;34.00;;;3.50;99.90;;;;;;5107080;27;20210;-58
2021/11/15 02:16:18;;;;;;;107.53;35.33;;;3.40;99.90;;;;;;5105063;27;20221;-58
2021/11/15 02:18:50;;;;;;;110.37;33.63;;;3.30;99.90;;;;;;5110372;27;20203;-59
2021/11/15 02:21:22;;;;;;;121.87;35.53;;;3.20;99.90;;;;;;5106983;27;20225;-57
2021/11/15 02:23:53;;;;;;;103.53;31.90;;;3.10;99.90;;;;;;5109632;27;20222;-54
2021/11/15 02:26:23;;;;;;;100.80;32.13;;;3.10;99.90;;;;;;5102902;27;20194;-58
2021/11/15 02:28:53;;;;;;;146.70;34.13;;;3.00;99.90;;;;;;5100213;27;20192;-58
2021/11/15 02:31:27;;;;;;;110.47;33.93;;;3.00;99.90;;;;;;5107001;27;20277;-59
2021/11/15 02:33:58;;;;;;;106.77;32.67;;;3.00;99.90;;;;;;5108358;27;20202;-56
2021/11/15 02:36:30;;;;;;;107.73;34.50;;;2.90;99.90;;;;;;5102628;27;20210;-58
2021/11/15 02:38:59;;;;;;;107.33;34.17;;;3.00;99.90;;;;;;5106606;27;20222;-59
2021/11/15 02:41:28;;;;;;;97.73;31.93;;;3.00;99.90;;;;;;5109253;27;20190;-59
2021/11/15 02:43:57;;;;;;;99.73;31.80;;;2.90;99.90;;;;;;5098395;27;20217;-59
2021/11/15 02:46:28;;;;;;;87.30;30.67;;;2.90;99.90;;;;;;5104574;27;20191;-57
2021/11/15 02:48:59;;;;;;;85.10;29.10;;;2.80;99.90;;;;;;5111096;27;20243;-59
2021/11/15 02:51:29;;;;;;;84.07;28.63;;;2.80;99.90;;;;;;5097363;27;20215;-59
2021/11/15 02:53:58;;;;;;;88.03;30.80;;;2.70;99.90;;;;;;5098671;27;20243;-59
2021/11/15 02:56:27;;;;;;;104.07;32.07;;;2.70;99.90;;;;;;5104840;27;20318;-57
2021/11/15 02:58:57;;;;;;;101.57;31.97;;;2.80;99.90;;;;;;5105521;27;20202;-58
2021/11/15 03:01:25;;;;;;;107.07;32.40;;;2.90;99.90;;;;;;5102703;27;20240;-59
2021/11/15 03:03:54;;;;;;;102.10;32.23;;;3.00;99.90;;;;;;5105212;28;20697;-58
2021/11/15 03:06:23;;;;;;;101.77;32.80;;;3.10;99.90;;;;;;5098890;27;20195;-59
2021/11/15 03:08:53;;;;;;;95.87;33.67;;;3.20;99.90;;;;;;5101884;27;20290;-58
2021/11/15 03:11:22;;;;;;;107.63;34.70;;;3.30;99.90;;;;;;5094698;27;20195;-59
2021/11/15 03:13:50;;;;;;;107.57;33.23;;;3.40;99.90;;;;;;5106629;27;20191;-59
2021/11/15 03:16:19;;;;;;;105.10;33.83;;;3.50;99.90;;;;;;5095322;27;20203;-60
2021/11/15 03:18:48;;;;;;;113.67;34.10;;;3.60;99.90;;;;;;5093762;28;20199;-59
2021/11/15 03:21:19;;;;;;;111.97;34.73;;;3.70;99.90;;;;;;5099135;27;20201;-59
2021/11/15 03:23:51;;;;;;;104.63;33.93;;;3.80;99.90;;;;;;5093293;27;20206;-59
2021/11/15 03:26:22;;;;;;;107.10;35.13;;;3.90;99.90;;;;;;5095633;28;20278;-59
2021/11/15 03:28:53;;;;;;;113.67;34.73;;;4.00;99.90;;;;;;5104488;27;20553;-59
2021/11/15 03:31:24;;;;;;;122.83;35.80;;;4.00;99.90;;;;;;5104956;27;20202;-59
2021/11/15 03:33:55;;;;;;;123.93;37.17;;;4.10;99.90;;;;;;5103092;27;20248;-58
2021/11/15 03:36:24;;;;;;;122.27;37.57;;;4.20;99.90;;;;;;5107735;27;20194;-59
2021/11/15 03:38:54;;;;;;;114.50;35.77;;;4.30;99.90;;;;;;5108276;27;20237;-57
2021/11/15 03:41:26;;;;;;;118.27;36.23;;;4.40;99.90;;;;;;5102034;28;20230;-59
2021/11/15 03:43:54;;;;;;;119.47;37.83;;;4.50;99.90;;;;;;5108912;27;20198;-58
2021/11/15 03:46:23;;;;;;;127.63;37.50;;;4.50;99.90;;;;;;5100194;27;20248;-58
2021/11/15 03:48:52;;;;;;;124.33;36.57;;;4.60;99.90;;;;;;5106530;27;20211;-57
2021/11/15 03:51:22;;;;;;;135.30;40.03;;;4.70;99.90;;;;;;5101288;27;20213;-59
2021/11/15 03:53:51;;;;;;;125.93;37.83;;;4.70;99.90;;;;;;5102871;27;20795;-59
2021/11/15 03:56:23;;;;;;;122.07;37.60;;;4.80;99.90;;;;;;5105568;28;20592;-59
2021/11/15 03:58:54;;;;;;;125.37;37.70;;;4.90;99.90;;;;;;5103093;27;20204;-57
2021/11/15 04:01:27;;;;;;;132.10;39.47;;;4.90;99.90;;;;;;5107164;27;20197;-59
2021/11/15 04:03:59;;;;;;;131.43;37.43;;;5.00;99.90;;;;;;5111949;27;20603;-58
2021/11/15 04:06:33;;;;;;;135.37;39.33;;;5.00;99.90;;;;;;5103432;28;20225;-58
2021/11/15 04:09:08;;;;;;;139.03;39.40;;;5.00;99.90;;;;;;5104121;27;20191;-59
2021/11/15 04:11:38;;;;;;;127.90;37.87;;;5.10;99.90;;;;;;5107682;27;20259;-59
2021/11/15 04:14:11;;;;;;;150.73;39.43;;;5.10;99.90;;;;;;5121815;27;20203;-59
2021/11/15 04:16:40;;;;;;;154.23;41.87;;;5.10;99.90;;;;;;5102875;27;20595;-59
2021/11/15 04:19:13;;;;;;;145.53;40.43;;;5.20;99.90;;;;;;5104380;28;20564;-59
2021/11/15 04:21:42;;;;;;;139.20;40.60;;;5.20;99.90;;;;;;5123513;27;20209;-59
2021/11/15 04:24:19;;;;;;;146.97;41.70;;;5.30;99.90;;;;;;5098429;27;20207;-58
2021/11/15 04:26:48;;;;;;;133.03;40.00;;;5.30;99.90;;;;;;5099764;27;20194;-59
2021/11/15 04:29:18;;;;;;;132.97;38.90;;;5.30;99.90;;;;;;5104613;27;20207;-59
2021/11/15 04:31:50;;;;;;;137.83;40.33;;;5.40;99.90;;;;;;5101419;27;20227;-59
2021/11/15 04:34:19;;;;;;;145.53;41.70;;;5.40;99.90;;;;;;5100298;27;20207;-59
2021/11/15 04:36:47;;;;;;;147.43;41.10;;;5.40;99.90;;;;;;5095954;27;20281;-58
2021/11/15 04:39:16;;;;;;;152.97;42.87;;;5.50;99.90;;;;;;5098399;27;20234;-59
2021/11/15 04:41:44;;;;;;;144.20;42.33;;;5.50;99.90;;;;;;5107160;27;20633;-59
2021/11/15 04:44:13;;;;;;;153.10;43.80;;;5.60;99.90;;;;;;5095011;27;20722;-57
2021/11/15 04:46:44;;;;;;;161.17;43.97;;;5.70;99.90;;;;;;5101220;27;20252;-59
2021/11/15 04:49:13;;;;;;;151.73;42.30;;;5.70;99.90;;;;;;5105312;27;20762;-59
2021/11/15 04:51:41;;;;;;;162.50;45.67;;;5.70;99.90;;;;;;5100568;27;20680;-59
2021/11/15 04:54:11;;;;;;;172.77;45.83;;;5.80;99.90;;;;;;5097841;28;20668;-59
2021/11/15 04:56:40;;;;;;;163.83;44.67;;;5.80;99.90;;;;;;5101074;27;20202;-59
2021/11/15 04:59:09;;;;;;;177.93;45.70;;;5.90;99.90;;;;;;5100437;28;20203;-59
2021/11/15 05:01:43;;;;;;;164.07;43.30;;;5.90;99.90;;;;;;5101726;28;20198;-59
2021/11/15 05:04:13;;;;;;;174.23;45.10;;;6.00;99.90;;;;;;5104448;28;20206;-60
2021/11/15 05:06:42;;;;;;;182.73;46.33;;;6.00;99.90;;;;;;5099042;28;20202;-59
2021/11/15 05:09:10;;;;;;;201.23;48.10;;;6.10;99.90;;;;;;5099261;28;20215;-59
2021/11/15 05:11:39;;;;;;;216.10;49.50;;;6.10;99.90;;;;;;5100194;28;20677;-59
2021/11/15 05:14:10;;;;;;;222.47;52.07;;;6.20;99.90;;;;;;5100208;28;20237;-59
2021/11/15 05:16:39;;;;;;;235.13;52.40;;;6.20;99.90;;;;;;5104225;28;20248;-57
2021/11/15 05:19:07;;;;;;;215.83;51.43;;;6.20;99.90;;;;;;5095192;28;20211;-59
2021/11/15 05:21:37;;;;;;;248.90;52.60;;;6.30;99.90;;;;;;5096149;28;20910;-59
2021/11/15 05:24:06;;;;;;;226.67;54.07;;;6.30;99.90;;;;;;5092396;28;20222;-59
2021/11/15 05:26:35;;;;;;;246.73;56.13;;;6.40;99.90;;;;;;5100750;28;20205;-59
2021/11/15 05:29:03;;;;;;;234.13;55.23;;;6.50;99.90;;;;;;5103874;28;20627;-59
2021/11/15 05:31:34;;;;;;;230.20;54.10;;;6.50;99.90;;;;;;5094630;28;20219;-59
2021/11/15 05:34:03;;;;;;;235.87;54.53;;;6.50;99.90;;;;;;5098726;28;20772;-59
2021/11/15 05:36:32;;;;;;;222.33;54.47;;;6.50;99.90;;;;;;5112687;28;20190;-59
2021/11/15 05:39:03;;;;;;;229.60;56.17;;;6.50;99.90;;;;;;5102597;28;20683;-58
2021/11/15 05:41:32;;;;;;;231.13;56.23;;;6.50;99.90;;;;;;5096345;28;20774;-59
2021/11/15 05:44:01;;;;;;;237.50;55.17;;;6.60;99.90;;;;;;5094668;28;20602;-59
2021/11/15 05:46:31;;;;;;;211.40;55.63;;;6.50;99.90;;;;;;5099579;28;20598;-59
2021/11/15 05:49:00;;;;;;;230.37;53.97;;;6.60;99.90;;;;;;5091105;28;20680;-58
2021/11/15 05:51:28;;;;;;;212.57;52.27;;;6.60;99.90;;;;;;5097039;27;20191;-59
2021/11/15 05:53:58;;;;;;;211.40;55.73;;;6.60;99.90;;;;;;5102318;27;20208;-59
2021/11/15 05:56:28;;;;;;;205.67;54.20;;;6.60;99.90;;;;;;5098388;27;20201;-58
2021/11/15 05:58:59;;;;;;;213.80;56.17;;;6.60;99.90;;;;;;5101254;28;20603;-58
2021/11/15 06:01:28;;;;;;;223.03;55.50;;;6.70;99.90;;;;;;5104255;27;20194;-59
2021/11/15 06:03:57;;;;;;;217.30;56.40;;;6.70;99.90;;;;;;5102521;27;20183;-59
2021/11/15 06:06:25;;;;;;;216.80;55.80;;;6.70;99.90;;;;;;5113918;27;20190;-58
2021/11/15 06:09:03;;;;;;;211.03;55.10;;;6.70;99.90;;;;;;5107320;27;20248;-59
2021/11/15 06:11:32;;;;;;;194.70;52.53;;;6.70;99.90;;;;;;5099209;28;20862;-59
2021/11/15 06:14:02;;;;;;;206.40;54.13;;;6.70;99.90;;;;;;5100193;28;20215;-59
2021/11/15 06:16:31;;;;;;;183.90;51.83;;;6.70;99.90;;;;;;5103009;27;20187;-59
2021/11/15 06:19:00;;;;;;;198.73;54.67;;;6.70;99.90;;;;;;5112972;27;20221;-59
2021/11/15 06:21:29;;;;;;;201.47;55.13;;;6.70;99.90;;;;;;5102418;27;20191;-58
2021/11/15 06:23:57;;;;;;;197.70;54.50;;;6.70;99.90;;;;;;5103869;27;20645;-59
2021/11/15 06:26:28;;;;;;;194.90;53.77;;;6.80;99.90;;;;;;5102546;27;20223;-58
2021/11/15 06:28:58;;;;;;;196.33;55.87;;;6.80;99.90;;;;;;5107149;27;20263;-58
2021/11/15 06:31:26;;;;;;;182.10;54.67;;;6.80;99.90;;;;;;5095377;27;20190;-59
2021/11/15 06:33:55;;;;;;;176.23;52.93;;;6.80;99.90;;;;;;5099415;27;20908;-58
2021/11/15 06:36:24;;;;;;;176.20;52.70;;;6.80;99.90;;;;;;5102705;27;20713;-57
2021/11/15 06:38:55;;;;;;;168.97;52.00;;;6.90;99.90;;;;;;5096723;27;20295;-59
2021/11/15 06:41:24;;;;;;;175.87;53.77;;;6.90;99.90;;;;;;5101085;27;20198;-58
2021/11/15 06:43:53;;;;;;;166.93;53.17;;;6.90;99.90;;;;;;5106846;27;20193;-59
2021/11/15 06:46:29;;;;;;;163.63;50.93;;;6.90;99.90;;;;;;5101370;27;20209;-59
2021/11/15 06:48:57;;;;;;;159.33;52.17;;;6.90;99.90;;;;;;5106203;27;20933;-59
2021/11/15 06:51:41;;;;;;;149.50;50.83;;;6.90;99.90;;;;;;5104963;27;20205;-59
2021/11/15 06:54:14;;;;;;;154.93;52.27;;;6.90;99.90;;;;;;5102208;27;20736;-59
2021/11/15 06:56:46;;;;;;;158.13;51.97;;;6.90;99.90;;;;;;5100261;27;20231;-59
2021/11/15 06:59:14;;;;;;;150.63;50.57;;;6.90;99.90;;;;;;5097800;27;20195;-56
2021/11/15 07:01:49;;;;;;;145.13;50.53;;;6.90;99.90;;;;;;5095654;27;20191;-59
2021/11/15 07:04:18;;;;;;;148.47;50.80;;;6.90;99.90;;;;;;5098745;27;20186;-58
2021/11/15 07:06:47;;;;;;;140.97;50.67;;;7.00;99.90;;;;;;5099964;28;20187;-58
2021/11/15 07:09:17;;;;;;;140.33;49.60;;;6.90;99.90;;;;;;5096446;27;20759;-59
2021/11/15 07:11:45;;;;;;;120.43;47.80;;;7.00;99.90;;;;;;5099442;27;20717;-58
2021/11/15 07:14:14;;;;;;;117.23;44.13;;;7.00;99.90;;;;;;5105853;27;20632;-58
2021/11/15 07:16:42;;;;;;;109.83;44.93;;;7.00;99.90;;;;;;5123258;27;20202;-58
2021/11/15 07:19:15;;;;;;;107.73;44.47;;;7.00;99.90;;;;;;5110180;27;20198;-59
2021/11/15 07:21:44;;;;;;;102.93;43.90;;;7.00;99.90;;;;;;5105742;27;20203;-59
2021/11/15 07:24:12;;;;;;;103.63;43.70;;;7.00;99.90;;;;;;5102451;27;20191;-59
2021/11/15 07:26:41;;;;;;;109.47;44.53;;;7.00;99.90;;;;;;5107182;28;20256;-59
2021/11/15 07:29:10;;;;;;;98.40;41.23;;;7.00;99.90;;;;;;5097325;28;20209;-59
2021/11/15 07:31:39;;;;;;;94.97;42.53;;;7.10;99.90;;;;;;5093685;28;20198;-57
2021/11/15 07:34:08;;;;;;;96.60;41.90;;;7.10;99.90;;;;;;5115599;27;20214;-59
2021/11/15 07:36:37;;;;;;;95.33;42.70;;;7.10;99.90;;;;;;5108013;28;20194;-59
2021/11/15 07:39:07;;;;;;;94.13;41.17;;;7.10;99.90;;;;;;5099836;27;20221;-58
2021/11/15 07:41:35;;;;;;;99.27;41.57;;;7.10;99.90;;;;;;5101075;27;20283;-59
2021/11/15 07:44:04;;;;;;;90.43;40.87;;;7.10;99.90;;;;;;5105991;27;20205;-59
2021/11/15 07:46:32;;;;;;;88.13;41.17;;;7.10;99.90;;;;;;5103826;27;20195;-57
2021/11/15 07:49:01;;;;;;;89.07;40.93;;;7.10;99.90;;;;;;5100362;27;20215;-59
2021/11/15 07:51:30;;;;;;;88.13;40.23;;;7.20;99.90;;;;;;5099421;27;20779;-57
2021/11/15 07:54:00;;;;;;;86.63;40.47;;;7.20;99.90;;;;;;5096856;27;20207;-59
2021/11/15 07:56:29;;;;;;;86.67;39.83;;;7.20;99.90;;;;;;5103078;27;20223;-58
2021/11/15 07:58:57;;;;;;;83.30;38.80;;;7.20;99.90;;;;;;5093787;27;20672;-58
2021/11/15 08:01:25;;;;;;;83.83;38.77;;;7.20;99.90;;;;;;5099035;28;20243;-58
2021/11/15 08:03:54;;;;;;;83.30;38.67;;;7.20;99.90;;;;;;5099766;28;20203;-59
2021/11/15 08:06:26;;;;;;;77.83;36.57;;;7.20;99.90;;;;;;5095298;27;20230;-58
2021/11/15 08:08:55;;;;;;;75.20;35.57;;;7.20;99.90;;;;;;5099574;27;20195;-58
2021/11/15 08:11:29;;;;;;;80.10;35.00;;;7.20;99.90;;;;;;5098697;27;20218;-58
2021/11/15 08:13:58;;;;;;;71.13;33.40;;;7.20;99.90;;;;;;5100554;27;20198;-57
2021/11/15 08:16:30;;;;;;;72.97;32.70;;;7.20;99.90;;;;;;5096980;27;20192;-58
2021/11/15 08:19:00;;;;;;;68.70;31.90;;;7.20;99.90;;;;;;5099179;28;20189;-58
2021/11/15 08:21:29;;;;;;;72.00;31.07;;;7.20;99.90;;;;;;5096245;27;20194;-58
2021/11/15 08:24:16;;;;;;;68.13;30.70;;;7.20;99.90;;;;;;5095016;27;20746;-57
2021/11/15 08:26:51;;;;;;;67.23;31.27;;;7.20;99.90;;;;;;5094415;27;20260;-59
2021/11/15 08:29:21;;;;;;;61.20;29.20;;;7.20;99.90;;;;;;5099028;27;20194;-58
2021/11/15 08:31:50;;;;;;;68.37;30.53;;;7.20;99.90;;;;;;5101739;27;20836;-59
2021/11/15 08:34:19;;;;;;;63.80;30.20;;;7.20;99.90;;;;;;5096545;27;20704;-58
2021/11/15 08:36:49;;;;;;;61.77;29.43;;;7.20;99.90;;;;;;5103898;27;20258;-58
2021/11/15 08:39:18;;;;;;;62.83;30.77;;;7.20;99.90;;;;;;5096017;27;20280;-59
2021/11/15 08:41:50;;;;;;;67.10;31.30;;;7.20;99.90;;;;;;5103063;27;20212;-58
2021/11/15 08:44:21;;;;;;;72.07;32.17;;;7.20;99.90;;;;;;5103489;27;20199;-59
2021/11/15 08:46:52;;;;;;;67.30;32.73;;;7.30;99.90;;;;;;5103128;27;20194;-59
2021/11/15 08:49:23;;;;;;;66.07;32.00;;;7.30;99.90;;;;;;5104095;27;20197;-58
2021/11/15 08:51:53;;;;;;;66.77;32.43;;;7.30;99.90;;;;;;5111115;27;20246;-59
2021/11/15 08:54:23;;;;;;;65.77;32.10;;;7.30;99.90;;;;;;5100502;27;20195;-58
2021/11/15 08:56:57;;;;;;;69.33;31.83;;;7.30;99.90;;;;;;5107896;27;20241;-59
2021/11/15 08:59:46;;;;;;;63.80;30.23;;;7.30;99.90;;;;;;5103326;27;20261;-59
2021/11/15 09:02:15;;;;;;;67.70;30.70;;;7.30;99.90;;;;;;5097321;28;20279;-59
2021/11/15 09:04:44;;;;;;;71.30;32.87;;;7.40;99.90;;;;;;5109821;27;20195;-59
2021/11/15 09:07:12;;;;;;;71.03;33.53;;;7.40;99.90;;;;;;5108433;27;20202;-58
2021/11/15 09:09:41;;;;;;;73.00;34.10;;;7.30;99.90;;;;;;5100110;28;20198;-59
2021/11/15 09:12:12;;;;;;;72.67;34.00;;;7.40;99.90;;;;;;5104758;28;20190;-59
2021/11/15 09:14:40;;;;;;;76.60;36.27;;;7.40;99.90;;;;;;5108805;28;20563;-58
2021/11/15 09:17:09;;;;;;;82.17;36.47;;;7.40;99.90;;;;;;5101614;28;20206;-59
2021/11/15 09:19:39;;;;;;;75.03;35.50;;;7.40;99.90;;;;;;5105551;28;20206;-58
2021/11/15 09:22:08;;;;;;;87.50;39.20;;;7.40;99.90;;;;;;5107840;27;20185;-59
2021/11/15 09:24:36;;;;;;;83.47;38.23;;;7.40;99.90;;;;;;5107116;27;20195;-57
2021/11/15 09:27:09;;;;;;;86.63;39.07;;;7.40;99.90;;;;;;5097013;27;20282;-58
2021/11/15 09:29:39;;;;;;;88.97;39.40;;;7.40;99.90;;;;;;5103643;27;20198;-59
2021/11/15 09:32:08;;;;;;;95.87;39.97;;;7.50;99.90;;;;;;5097694;27;20195;-59
2021/11/15 09:34:40;;;;;;;97.03;40.43;;;7.50;99.90;;;;;;5105446;27;20186;-58
2021/11/15 09:37:08;;;;;;;92.33;38.50;;;7.50;99.90;;;;;;5101916;27;20274;-58
2021/11/15 09:39:37;;;;;;;90.87;38.07;;;7.50;99.90;;;;;;5108805;27;20668;-58
2021/11/15 09:42:06;;;;;;;91.37;39.53;;;7.60;99.90;;;;;;5107331;27;20239;-59
2021/11/15 09:44:35;;;;;;;97.33;40.43;;;7.50;99.90;;;;;;5101447;27;20195;-59
2021/11/15 09:47:05;;;;;;;92.90;39.43;;;7.50;99.90;;;;;;5102808;27;20199;-58
2021/11/15 09:49:34;;;;;;;89.27;38.37;;;7.50;99.90;;;;;;5107629;27;20206;-58
2021/11/15 09:52:03;;;;;;;87.37;37.33;;;7.50;99.90;;;;;;5112917;27;20201;-59
2021/11/15 09:54:31;;;;;;;87.07;38.50;;;7.50;99.90;;;;;;5103955;27;20191;-58
2021/11/15 09:57:00;;;;;;;83.97;37.50;;;7.50;99.90;;;;;;5110596;27;20211;-59
2021/11/15 09:59:30;;;;;;;90.83;39.67;;;7.50;99.90;;;;;;5106371;27;20191;-58
2021/11/15 10:02:00;;;;;;;86.10;37.70;;;7.50;99.90;;;;;;5101476;27;20199;-58
2021/11/15 10:04:29;;;;;;;102.33;41.40;;;7.50;99.90;;;;;;5101687;27;20255;-58
2021/11/15 10:06:58;;;;;;;93.30;40.67;;;7.50;99.90;;;;;;5108239;27;20187;-59
2021/11/15 10:09:28;;;;;;;99.13;41.03;;;7.50;99.90;;;;;;5107437;27;20229;-57
2021/11/15 10:11:57;;;;;;;100.23;42.47;;;7.60;99.90;;;;;;5103303;27;20199;-57
2021/11/15 10:14:26;;;;;;;100.57;41.63;;;7.70;99.90;;;;;;5109069;27;20693;-57
2021/11/15 10:16:58;;;;;;;95.10;39.83;;;7.60;99.90;;;;;;5110473;27;20683;-58
2021/11/15 10:19:27;;;;;;;97.87;39.83;;;7.70;99.90;;;;;;5105474;27;20225;-58
2021/11/15 10:21:59;;;;;;;91.07;40.80;;;7.70;99.90;;;;;;5103958;27;20213;-57
2021/11/15 10:24:32;;;;;;;96.93;39.97;;;7.70;99.90;;;;;;5098720;27;20345;-58
2021/11/15 10:27:04;;;;;;;92.10;39.13;;;7.70;99.90;;;;;;5103067;27;20214;-58
2021/11/15 10:29:35;;;;;;;90.67;38.97;;;7.70;99.90;;;;;;5104288;27;20202;-58
2021/11/15 10:32:06;;;;;;;92.57;38.50;;;7.70;99.90;;;;;;5107231;27;20682;-59
2021/11/15 10:34:37;;;;;;;87.80;37.67;;;7.70;99.90;;;;;;5104898;27;20293;-58
2021/11/15 10:37:11;;;;;;;87.57;38.97;;;7.70;99.90;;;;;;5100100;27;20219;-59
2021/11/15 10:39:44;;;;;;;84.90;37.80;;;7.70;99.90;;;;;;5108237;27;20221;-59
2021/11/15 10:42:16;;;;;;;94.53;40.27;;;7.70;99.90;;;;;;5099663;27;20202;-59
2021/11/15 10:44:52;;;;;;;89.30;38.83;;;7.70;99.90;;;;;;5098321;27;20207;-58
2021/11/15 10:47:28;;;;;;;93.73;39.87;;;7.80;99.90;;;;;;5092771;28;20190;-58
2021/11/15 10:50:09;;;;;;;93.60;40.47;;;7.80;99.90;;;;;;5109604;27;20293;-58
2021/11/15 10:52:41;;;;;;;91.43;39.53;;;7.80;99.90;;;;;;5108653;27;20226;-59
2021/11/15 10:55:11;;;;;;;90.50;38.87;;;7.80;99.90;;;;;;5103630;27;20221;-59
2021/11/15 10:57:42;;;;;;;99.43;39.63;;;7.80;99.90;;;;;;5101697;27;20222;-57
2021/11/15 11:00:27;;;;;;;89.40;40.47;;;7.80;99.90;;;;;;5104719;27;20639;-59
2021/11/15 11:03:05;;;;;;;83.40;38.37;;;7.70;99.90;;;;;;5104482;27;20264;-59
2021/11/15 11:05:37;;;;;;;88.30;38.47;;;7.80;99.90;;;;;;5101730;27;20275;-59
2021/11/15 11:08:10;;;;;;;86.53;38.37;;;7.80;99.90;;;;;;5106812;27;20209;-58
2021/11/15 11:10:48;;;;;;;84.63;37.43;;;7.80;99.90;;;;;;5106982;27;20259;-59
2021/11/15 11:13:19;;;;;;;87.63;40.07;;;7.70;99.90;;;;;;5107201;27;20203;-59
2021/11/15 11:15:49;;;;;;;86.77;38.87;;;7.70;99.90;;;;;;5104638;27;20214;-59
2021/11/15 11:18:23;;;;;;;86.03;36.83;;;7.80;99.90;;;;;;5117463;27;20191;-59
2021/11/15 11:26:57;;;;;;;85.07;35.10;;;7.60;99.90;;;;;;5099506;27;20248;-58
2021/11/15 11:29:33;;;;;;;86.53;36.97;;;7.70;99.90;;;;;;5114435;27;20191;-58
2021/11/15 11:32:06;;;;;;;90.73;37.00;;;7.70;99.90;;;;;;5099056;27;20191;-59
2021/11/15 11:34:36;;;;;;;94.23;37.00;;;7.70;99.90;;;;;;5105500;27;20274;-59
2021/11/15 11:37:07;;;;;;;101.83;38.43;;;7.80;99.90;;;;;;5099784;27;20279;-59
2021/11/15 11:39:38;;;;;;;99.77;38.50;;;7.70;99.90;;;;;;5099768;27;20886;-59
2021/11/15 11:42:08;;;;;;;100.53;38.27;;;7.70;99.90;;;;;;5099344;27;20205;-59
2021/11/15 11:44:47;;;;;;;109.47;41.23;;;7.70;99.90;;;;;;5102409;27;20620;-58
2021/11/15 11:47:19;;;;;;;102.77;39.13;;;7.70;99.90;;;;;;5101902;27;20186;-59
2021/11/15 11:49:48;;;;;;;102.77;38.20;;;7.70;99.90;;;;;;5104793;27;20187;-57
2021/11/15 11:52:27;;;;;;;95.87;37.60;;;7.60;99.90;;;;;;5093704;27;20195;-59
2021/11/15 11:54:57;;;;;;;91.40;37.80;;;7.60;99.90;;;;;;5102028;27;20195;-58
2021/11/15 11:57:30;;;;;;;102.60;38.83;;;7.60;99.90;;;;;;5112458;27;20217;-58
2021/11/15 12:00:03;;;;;;;105.77;41.30;;;7.60;99.90;;;;;;5105908;27;20261;-59
2021/11/15 12:02:33;;;;;;;93.70;37.70;;;7.60;99.90;;;;;;5114001;27;20194;-58
2021/11/15 12:05:06;;;;;;;85.70;34.20;;;7.60;99.90;;;;;;5108264;27;20193;-58
2021/11/15 12:07:38;;;;;;;78.50;33.73;;;7.60;99.90;;;;;;5109221;27;20179;-59
2021/11/15 12:10:10;;;;;;;76.87;32.27;;;7.60;99.90;;;;;;5091086;28;20210;-58
2021/11/15 12:12:59;;;;;;;72.60;32.23;;;7.60;99.90;;;;;;5109427;27;20607;-58
2021/11/15 12:15:33;;;;;;;85.47;33.97;;;7.50;99.90;;;;;;5104609;27;20274;-57
2021/11/15 12:18:07;;;;;;;83.23;35.27;;;7.50;99.90;;;;;;5107181;27;20210;-58
2021/11/15 12:21:16;;;;;;;81.43;34.90;;;7.50;99.90;;;;;;5101181;27;20194;-58
2021/11/15 12:24:09;;;;;;;74.73;31.67;;;7.60;99.90;;;;;;5097748;27;20199;-59
2021/11/15 12:26:47;;;;;;;84.57;34.27;;;7.60;99.90;;;;;;5105300;27;20273;-58
2021/11/15 12:29:25;;;;;;;77.47;34.07;;;7.50;99.90;;;;;;5096844;27;21268;-58
2021/11/15 12:31:57;;;;;;;86.07;34.03;;;7.50;99.90;;;;;;5115167;27;20616;-59
2021/11/15 12:34:28;;;;;;;80.50;33.37;;;7.40;99.90;;;;;;5107131;27;20219;-59
2021/11/15 12:36:58;;;;;;;80.97;34.20;;;7.50;99.90;;;;;;5097527;27;20210;-57
2021/11/15 12:39:30;;;;;;;79.07;33.10;;;7.50;99.90;;;;;;5101271;27;20285;-58
2021/11/15 12:42:01;;;;;;;74.67;32.87;;;7.50;99.90;;;;;;5115796;27;20798;-58
2021/11/15 12:44:34;;;;;;;78.63;34.23;;;7.50;99.90;;;;;;5109773;27;20705;-59
2021/11/15 12:47:17;;;;;;;75.50;32.57;;;7.60;99.90;;;;;;5103770;27;20198;-59
2021/11/15 12:49:54;;;;;;;76.30;32.67;;;7.60;99.90;;;;;;5093933;28;20218;-58
2021/11/15 12:52:34;;;;;;;72.50;31.43;;;7.50;99.90;;;;;;5109742;27;20198;-59
2021/11/15 12:55:10;;;;;;;71.70;30.67;;;7.60;99.90;;;;;;5104438;27;20194;-58
2021/11/15 12:57:48;;;;;;;72.20;31.90;;;7.60;99.90;;;;;;5103917;27;20210;-59